Time;durP1;ratioP1;P1;durP2;ratioP2;P2;SDS_P1;SDS_P2;PMS_P1;PMS_P2;Temp;Humidity;BMP_temperature;BMP_pressure;BME280_temperature;BME280_humidity;BME280_pressure;Samples;Min_cycle;Max_cycle;Signal;HPM_P1;HPM_P2
2023/12/07 00:01:08;;;;;;;7.78;6.75;;;2.20;99.90;;;;;;5098663;28;20055;-67
2023/12/07 00:03:33;;;;;;;7.63;6.78;;;2.30;99.90;;;;;;5096410;28;20036;-67
2023/12/07 00:05:59;;;;;;;7.53;6.22;;;2.20;99.90;;;;;;5085879;28;20046;-67
2023/12/07 00:08:25;;;;;;;9.88;7.00;;;2.20;99.90;;;;;;5100794;28;20035;-67
2023/12/07 00:10:50;;;;;;;8.27;6.78;;;2.30;99.90;;;;;;5097209;28;20028;-67
2023/12/07 00:13:16;;;;;;;9.93;7.00;;;2.30;99.90;;;;;;5100019;28;20047;-67
2023/12/07 00:15:42;;;;;;;8.18;7.22;;;2.20;99.90;;;;;;5095622;28;20363;-67
2023/12/07 00:18:08;;;;;;;7.80;6.60;;;2.30;99.90;;;;;;5097444;28;20097;-67
2023/12/07 00:20:33;;;;;;;10.52;7.80;;;2.30;99.90;;;;;;5099067;28;20470;-67
2023/12/07 00:22:59;;;;;;;9.77;7.40;;;2.30;99.90;;;;;;5097656;28;20043;-67
2023/12/07 00:25:24;;;;;;;9.18;6.38;;;2.30;99.90;;;;;;5131688;27;20055;-67
2023/12/07 00:27:51;;;;;;;9.27;7.15;;;2.30;99.90;;;;;;5099260;28;20036;-67
2023/12/07 00:30:16;;;;;;;10.65;8.07;;;2.30;99.90;;;;;;5100694;27;20031;-67
2023/12/07 00:32:46;;;;;;;7.90;6.68;;;2.30;99.90;;;;;;5133726;27;20040;-67
2023/12/07 00:35:11;;;;;;;7.03;6.43;;;2.30;99.90;;;;;;5101732;27;20035;-67
2023/12/07 00:37:37;;;;;;;11.98;7.13;;;2.30;99.90;;;;;;5096476;27;20040;-67
2023/12/07 00:40:03;;;;;;;8.80;7.88;;;2.30;99.90;;;;;;5100078;27;20405;-67
2023/12/07 00:42:29;;;;;;;10.80;8.07;;;2.30;99.90;;;;;;5099790;28;20119;-67
2023/12/07 00:44:55;;;;;;;10.13;7.72;;;2.30;99.90;;;;;;5102151;28;20592;-67
2023/12/07 00:47:21;;;;;;;9.13;7.40;;;2.30;99.90;;;;;;5080336;28;20043;-67
2023/12/07 00:49:47;;;;;;;10.63;7.75;;;2.30;99.90;;;;;;5133377;27;20435;-67
2023/12/07 00:52:13;;;;;;;8.52;7.40;;;2.40;99.90;;;;;;5102477;27;20032;-67
2023/12/07 00:54:39;;;;;;;8.43;7.30;;;2.50;99.90;;;;;;5101942;27;20046;-67
2023/12/07 00:57:05;;;;;;;11.15;7.93;;;2.30;99.90;;;;;;5132052;27;20551;-67
2023/12/07 00:59:33;;;;;;;13.25;7.88;;;2.40;99.90;;;;;;5083708;28;20073;-67
2023/12/07 01:02:08;;;;;;;9.82;8.23;;;2.40;99.90;;;;;;5129675;27;20554;-67
2023/12/07 01:04:34;;;;;;;8.25;7.45;;;2.30;99.90;;;;;;5099906;28;20398;-67
2023/12/07 01:06:59;;;;;;;8.98;7.65;;;2.40;99.90;;;;;;5100480;27;20028;-67
2023/12/07 01:09:26;;;;;;;9.98;7.65;;;2.30;99.90;;;;;;5099701;27;20024;-67
2023/12/07 01:11:52;;;;;;;10.10;7.53;;;2.30;99.90;;;;;;5098292;28;20024;-67
2023/12/07 01:14:18;;;;;;;10.68;8.65;;;2.30;99.90;;;;;;5102525;28;20144;-67
2023/12/07 01:16:45;;;;;;;10.25;8.32;;;2.30;99.90;;;;;;5098414;28;20138;-67
2023/12/07 01:19:14;;;;;;;15.95;9.82;;;2.30;99.90;;;;;;5098698;28;20454;-67
2023/12/07 01:21:40;;;;;;;13.52;9.75;;;2.30;99.90;;;;;;5084973;28;20085;-67
2023/12/07 01:24:07;;;;;;;10.18;9.13;;;2.20;99.90;;;;;;5100031;27;20040;-67
2023/12/07 01:26:32;;;;;;;10.02;9.02;;;2.20;99.90;;;;;;5097253;27;20066;-67
2023/12/07 01:28:58;;;;;;;11.93;10.15;;;2.20;99.90;;;;;;5095416;28;20067;-67
2023/12/07 01:31:23;;;;;;;18.30;10.30;;;2.20;99.90;;;;;;5099126;28;20401;-67
2023/12/07 01:33:49;;;;;;;12.23;10.18;;;2.20;99.90;;;;;;5096859;28;20047;-67
2023/12/07 01:36:15;;;;;;;13.18;11.40;;;2.20;99.90;;;;;;5096159;27;20058;-67
2023/12/07 01:38:40;;;;;;;13.00;9.70;;;2.10;99.90;;;;;;5096398;27;20127;-67
2023/12/07 01:41:06;;;;;;;13.05;11.27;;;2.10;99.90;;;;;;5085251;28;20043;-67
2023/12/07 01:43:32;;;;;;;13.07;11.55;;;2.10;99.90;;;;;;5098881;28;20091;-67
2023/12/07 01:45:58;;;;;;;12.65;11.35;;;2.10;99.90;;;;;;5098108;28;20117;-67
2023/12/07 01:48:28;;;;;;;13.52;11.93;;;2.10;99.90;;;;;;5101678;28;20655;-67
2023/12/07 01:50:56;;;;;;;18.10;12.15;;;2.10;99.90;;;;;;5096398;28;20115;-67
2023/12/07 01:53:23;;;;;;;16.02;12.60;;;2.00;99.90;;;;;;5098775;28;20054;-67
2023/12/07 01:55:50;;;;;;;14.85;12.38;;;2.00;99.90;;;;;;5099982;28;20492;-67
2023/12/07 01:58:17;;;;;;;20.05;13.93;;;2.00;99.90;;;;;;5099340;28;20047;-67
2023/12/07 02:00:43;;;;;;;15.73;13.07;;;2.10;99.90;;;;;;5100567;28;20032;-67
2023/12/07 02:03:09;;;;;;;16.75;12.95;;;2.00;99.90;;;;;;5101943;28;20040;-67
2023/12/07 02:05:37;;;;;;;15.35;13.52;;;2.00;99.90;;;;;;5097827;28;20094;-67
2023/12/07 02:08:02;;;;;;;15.55;13.95;;;2.00;99.90;;;;;;5096103;27;20047;-67
2023/12/07 02:10:28;;;;;;;19.90;13.52;;;2.00;99.90;;;;;;5098421;28;20024;-67
2023/12/07 02:12:54;;;;;;;18.42;13.25;;;1.90;99.90;;;;;;5095795;27;20097;-67
2023/12/07 02:15:21;;;;;;;15.30;12.55;;;1.90;99.90;;;;;;5097151;28;20043;-67
2023/12/07 02:18:07;;;;;;;14.52;12.43;;;1.90;99.90;;;;;;5098472;28;20040;-67
2023/12/07 02:20:41;;;;;;;16.25;12.70;;;1.80;99.90;;;;;;5095471;28;20050;-67
2023/12/07 02:23:08;;;;;;;18.33;12.77;;;1.70;99.90;;;;;;5099352;28;20076;-67
2023/12/07 02:25:46;;;;;;;15.93;12.32;;;1.70;99.90;;;;;;5096940;28;20140;-67
2023/12/07 02:28:11;;;;;;;14.90;12.95;;;1.70;99.90;;;;;;5097091;28;20044;-67
2023/12/07 02:30:37;;;;;;;17.95;12.35;;;1.60;99.90;;;;;;5095082;28;20032;-67
2023/12/07 02:33:02;;;;;;;13.40;12.05;;;1.60;99.90;;;;;;5096977;28;20040;-67
2023/12/07 02:35:29;;;;;;;15.75;12.40;;;1.50;99.90;;;;;;5099759;27;21751;-67
2023/12/07 02:37:55;;;;;;;17.30;12.77;;;1.60;99.90;;;;;;5094814;27;20031;-67
2023/12/07 02:40:24;;;;;;;15.30;12.35;;;1.50;99.90;;;;;;5095885;28;20051;-67
2023/12/07 02:42:52;;;;;;;16.67;13.20;;;1.50;99.90;;;;;;5095316;28;20093;-67
2023/12/07 02:45:18;;;;;;;16.65;12.18;;;1.50;99.90;;;;;;5097735;28;20046;-67
2023/12/07 02:47:45;;;;;;;16.50;11.77;;;1.50;99.90;;;;;;5083364;28;20039;-67
2023/12/07 02:50:11;;;;;;;13.02;11.68;;;1.40;99.90;;;;;;5097521;27;20133;-67
2023/12/07 02:52:37;;;;;;;14.30;12.55;;;1.40;99.90;;;;;;5099316;28;20039;-67
2023/12/07 02:55:03;;;;;;;14.63;12.32;;;1.40;99.90;;;;;;5096045;28;20118;-67
2023/12/07 02:57:29;;;;;;;17.38;13.20;;;1.40;99.90;;;;;;5082800;28;20043;-67
2023/12/07 02:59:56;;;;;;;14.43;12.55;;;1.40;99.90;;;;;;5092617;28;20040;-67
2023/12/07 03:02:22;;;;;;;15.38;12.90;;;1.40;99.90;;;;;;5095109;28;20043;-67
2023/12/07 03:04:47;;;;;;;16.67;13.30;;;1.40;99.90;;;;;;5101003;28;20716;-67
2023/12/07 03:07:13;;;;;;;16.88;13.40;;;1.40;99.90;;;;;;5096446;27;20173;-67
2023/12/07 03:09:39;;;;;;;14.88;12.75;;;1.40;99.90;;;;;;5096188;28;20482;-67
2023/12/07 03:12:05;;;;;;;19.27;13.27;;;1.30;99.90;;;;;;5094954;28;20043;-67
2023/12/07 03:14:30;;;;;;;18.83;14.10;;;1.30;99.90;;;;;;5097838;28;20044;-67
2023/12/07 03:16:56;;;;;;;16.98;13.30;;;1.30;99.90;;;;;;5094178;28;20039;-67
2023/12/07 03:19:21;;;;;;;20.20;13.77;;;1.40;99.90;;;;;;5102213;28;20044;-67
2023/12/07 03:21:47;;;;;;;18.60;13.77;;;1.30;99.90;;;;;;5096772;28;20035;-67
2023/12/07 03:24:13;;;;;;;16.50;13.68;;;1.30;99.90;;;;;;5098978;28;20171;-67
2023/12/07 03:26:38;;;;;;;22.63;14.15;;;1.30;99.90;;;;;;5095813;28;20047;-67
2023/12/07 03:29:04;;;;;;;19.02;14.23;;;1.30;99.90;;;;;;5096789;28;20047;-67
2023/12/07 03:31:30;;;;;;;19.38;15.23;;;1.20;99.90;;;;;;5095774;28;20046;-67
2023/12/07 03:33:56;;;;;;;17.95;14.38;;;1.20;99.90;;;;;;5095970;28;20093;-67
2023/12/07 03:36:22;;;;;;;21.02;14.60;;;1.20;99.90;;;;;;5099835;28;20048;-67
2023/12/07 03:38:48;;;;;;;21.58;14.30;;;1.20;99.90;;;;;;5098034;27;20115;-67
2023/12/07 03:41:15;;;;;;;18.38;14.10;;;1.20;99.90;;;;;;5099503;28;20039;-67
2023/12/07 03:43:40;;;;;;;21.10;14.95;;;1.20;99.90;;;;;;5096582;28;20032;-67
2023/12/07 03:46:07;;;;;;;19.83;13.75;;;1.20;99.90;;;;;;5099106;28;20044;-67
2023/12/07 03:48:33;;;;;;;18.88;13.77;;;1.10;99.90;;;;;;5095861;28;20043;-67
2023/12/07 03:50:59;;;;;;;21.17;13.93;;;1.10;99.90;;;;;;5093935;28;20079;-67
2023/12/07 03:53:25;;;;;;;20.60;14.05;;;1.00;99.90;;;;;;5097892;28;20096;-67
2023/12/07 03:55:51;;;;;;;23.75;15.30;;;1.00;99.90;;;;;;5095321;28;20043;-67
2023/12/07 03:58:17;;;;;;;20.88;14.57;;;1.00;99.90;;;;;;5095298;28;20038;-67
2023/12/07 04:00:43;;;;;;;20.88;14.77;;;1.00;99.90;;;;;;5100045;28;20475;-67
2023/12/07 04:03:09;;;;;;;21.70;14.43;;;0.90;99.90;;;;;;5118698;27;20082;-67
2023/12/07 04:05:34;;;;;;;30.33;15.30;;;1.00;99.90;;;;;;5100793;28;20548;-67
2023/12/07 04:08:00;;;;;;;22.63;15.10;;;1.00;99.90;;;;;;5101344;27;20040;-67
2023/12/07 04:10:26;;;;;;;21.80;16.00;;;1.00;99.90;;;;;;5100669;28;20028;-67
2023/12/07 04:12:55;;;;;;;33.72;15.40;;;1.00;99.90;;;;;;5103062;27;20089;-67
2023/12/07 04:15:20;;;;;;;28.35;16.00;;;0.90;99.90;;;;;;5098506;28;20153;-67
2023/12/07 04:17:46;;;;;;;143.35;18.38;;;0.90;99.90;;;;;;5102663;28;20173;-67
2023/12/07 04:20:13;;;;;;;147.02;19.02;;;0.90;99.90;;;;;;5101263;28;20038;-67
2023/12/07 04:22:39;;;;;;;153.15;18.20;;;0.90;99.90;;;;;;5102267;28;20389;-67
2023/12/07 04:25:05;;;;;;;100.85;17.88;;;0.90;99.90;;;;;;5134896;27;20040;-67
2023/12/07 04:27:32;;;;;;;106.28;18.02;;;0.80;99.90;;;;;;5100090;28;20046;-67
2023/12/07 04:29:57;;;;;;;42.50;17.48;;;0.90;99.90;;;;;;5099215;27;20150;-67
2023/12/07 04:32:23;;;;;;;66.78;17.73;;;0.90;99.90;;;;;;5098670;28;20129;-66
2023/12/07 04:34:49;;;;;;;44.83;18.88;;;0.80;99.90;;;;;;5099391;28;20089;-67
2023/12/07 04:37:15;;;;;;;45.28;17.63;;;0.80;99.90;;;;;;5098921;27;20051;-67
2023/12/07 04:39:40;;;;;;;27.33;18.20;;;0.80;99.90;;;;;;5098717;28;20142;-67
2023/12/07 04:42:06;;;;;;;27.45;17.40;;;0.80;99.90;;;;;;5102590;27;20394;-67
2023/12/07 04:44:32;;;;;;;25.50;17.30;;;0.80;99.90;;;;;;5101091;28;20527;-67
2023/12/07 04:46:57;;;;;;;28.00;17.60;;;0.70;99.90;;;;;;5099107;27;20084;-67
2023/12/07 04:49:23;;;;;;;26.90;18.08;;;0.80;99.90;;;;;;5101154;27;20039;-67
2023/12/07 04:51:48;;;;;;;26.35;18.90;;;0.70;99.90;;;;;;5100861;27;20035;-67
2023/12/07 04:54:14;;;;;;;29.08;19.05;;;0.70;99.90;;;;;;5098494;28;20064;-67
2023/12/07 04:56:43;;;;;;;26.55;18.10;;;0.70;99.90;;;;;;5103239;27;20035;-67
2023/12/07 04:59:10;;;;;;;26.48;17.98;;;0.80;99.90;;;;;;5099959;27;20044;-66
2023/12/07 05:01:38;;;;;;;28.25;17.92;;;0.70;99.90;;;;;;5098267;27;20051;-67
2023/12/07 05:04:04;;;;;;;27.48;18.10;;;0.70;99.90;;;;;;5098706;27;20036;-67
2023/12/07 05:06:31;;;;;;;27.13;17.92;;;0.70;99.90;;;;;;5097010;27;20039;-67
2023/12/07 05:08:57;;;;;;;27.38;19.25;;;0.70;99.90;;;;;;5097243;28;20509;-67
2023/12/07 05:11:23;;;;;;;28.02;18.98;;;0.70;99.90;;;;;;5104430;27;20031;-67
2023/12/07 05:13:48;;;;;;;30.33;18.48;;;0.60;99.90;;;;;;5097181;27;20077;-67
2023/12/07 05:16:14;;;;;;;26.10;17.55;;;0.70;99.90;;;;;;5098652;28;20063;-67
2023/12/07 05:18:40;;;;;;;27.60;17.67;;;0.70;99.90;;;;;;5103102;28;20115;-67
2023/12/07 05:21:07;;;;;;;27.40;17.77;;;0.70;99.90;;;;;;5101781;27;20044;-67
2023/12/07 05:23:33;;;;;;;29.63;18.63;;;0.70;99.90;;;;;;5131146;27;20043;-67
2023/12/07 05:25:59;;;;;;;27.95;18.60;;;0.70;99.90;;;;;;5101643;27;20043;-67
2023/12/07 05:28:25;;;;;;;28.85;18.23;;;0.70;99.90;;;;;;5097757;27;20039;-67
2023/12/07 05:30:51;;;;;;;31.73;19.00;;;0.70;99.90;;;;;;5097987;27;20050;-67
2023/12/07 05:33:19;;;;;;;29.38;20.08;;;0.70;99.90;;;;;;5099959;28;20036;-67
2023/12/07 05:35:45;;;;;;;32.78;21.23;;;0.60;99.90;;;;;;5098480;28;20115;-67
2023/12/07 05:38:11;;;;;;;33.05;21.58;;;0.60;99.90;;;;;;5100079;27;20385;-67
2023/12/07 05:40:36;;;;;;;27.10;18.75;;;1.10;99.90;;;;;;5097403;28;20043;-67
2023/12/07 05:43:03;;;;;;;36.17;22.35;;;0.60;99.90;;;;;;5098467;28;20497;-67
2023/12/07 05:45:29;;;;;;;31.40;20.65;;;0.50;99.90;;;;;;5097150;28;20038;-67
2023/12/07 05:47:54;;;;;;;33.47;21.48;;;0.50;99.90;;;;;;5099499;28;20420;-67
2023/12/07 05:50:20;;;;;;;30.77;21.13;;;0.50;99.90;;;;;;5099422;27;20115;-66
2023/12/07 05:52:46;;;;;;;36.38;22.10;;;0.40;99.90;;;;;;5095607;28;20036;-66
2023/12/07 05:55:12;;;;;;;31.85;20.95;;;0.50;99.90;;;;;;5100290;28;20039;-66
2023/12/07 05:57:37;;;;;;;26.98;18.27;;;0.50;99.90;;;;;;5100091;28;20035;-67
2023/12/07 06:00:07;;;;;;;26.75;18.27;;;0.50;99.90;;;;;;5097612;28;20516;-66
2023/12/07 06:02:33;;;;;;;29.10;19.10;;;0.40;99.90;;;;;;5103145;27;20028;-66
2023/12/07 06:04:58;;;;;;;28.30;17.45;;;0.40;99.90;;;;;;5096779;28;20858;-66
2023/12/07 06:07:24;;;;;;;31.30;19.25;;;0.40;99.90;;;;;;5097469;27;20067;-67
2023/12/07 06:09:50;;;;;;;26.17;18.17;;;0.30;99.90;;;;;;5096632;28;20031;-67
2023/12/07 06:12:15;;;;;;;27.42;18.98;;;0.30;99.90;;;;;;5100448;28;20483;-67
2023/12/07 06:14:41;;;;;;;24.30;17.48;;;0.20;99.90;;;;;;5098233;28;20050;-67
2023/12/07 06:17:08;;;;;;;27.60;17.98;;;0.20;99.90;;;;;;5099423;27;20045;-66
2023/12/07 06:19:33;;;;;;;25.42;16.65;;;0.10;99.90;;;;;;5096549;28;20420;-66
2023/12/07 06:21:59;;;;;;;23.70;17.50;;;0.20;99.90;;;;;;5098661;28;20043;-66
2023/12/07 06:24:25;;;;;;;23.60;17.30;;;0.20;99.90;;;;;;5093989;28;20447;-67
2023/12/07 06:26:51;;;;;;;29.90;17.63;;;0.10;99.90;;;;;;5092880;28;20040;-67
2023/12/07 06:29:18;;;;;;;26.73;18.00;;;0.10;99.90;;;;;;5095371;28;20043;-66
2023/12/07 06:31:44;;;;;;;23.40;17.20;;;0.10;99.90;;;;;;5095576;28;20035;-66
2023/12/07 06:34:10;;;;;;;26.02;17.83;;;0.10;99.90;;;;;;5095071;28;20031;-67
2023/12/07 06:36:35;;;;;;;28.65;17.23;;;0.20;99.90;;;;;;5093674;28;20390;-67
2023/12/07 06:39:03;;;;;;;26.83;18.83;;;0.20;99.90;;;;;;5076612;28;20034;-66
2023/12/07 06:41:28;;;;;;;22.80;17.25;;;0.10;99.90;;;;;;5096385;28;20035;-67
2023/12/07 06:43:54;;;;;;;28.05;18.33;;;0.20;99.90;;;;;;5094381;28;20040;-67
2023/12/07 06:46:20;;;;;;;26.65;19.33;;;0.20;99.90;;;;;;5092905;28;20074;-67
2023/12/07 06:48:46;;;;;;;30.00;19.40;;;0.20;99.90;;;;;;5095719;28;20071;-67
2023/12/07 06:51:14;;;;;;;25.83;18.30;;;0.20;99.90;;;;;;5099931;28;20467;-67
2023/12/07 06:53:40;;;;;;;38.47;22.50;;;0.20;99.90;;;;;;5096805;28;20678;-67
2023/12/07 06:56:07;;;;;;;34.28;21.55;;;0.20;99.90;;;;;;5095607;27;20090;-67
2023/12/07 06:58:33;;;;;;;33.33;22.45;;;0.20;99.90;;;;;;5098130;28;20058;-67
2023/12/07 07:00:59;;;;;;;34.60;22.10;;;0.20;99.90;;;;;;5097665;28;20166;-67
2023/12/07 07:03:25;;;;;;;29.95;20.85;;;0.20;99.90;;;;;;5099552;28;20158;-67
2023/12/07 07:05:50;;;;;;;28.60;21.15;;;0.30;99.90;;;;;;5103319;28;20048;-67
2023/12/07 07:08:16;;;;;;;32.40;21.25;;;0.20;99.90;;;;;;5102432;28;20063;-67
2023/12/07 07:10:44;;;;;;;30.13;20.92;;;0.20;99.90;;;;;;5097671;28;20554;-66
2023/12/07 07:13:09;;;;;;;34.28;22.38;;;0.20;99.90;;;;;;5096092;28;20055;-67
2023/12/07 07:15:35;;;;;;;30.27;20.42;;;0.20;99.90;;;;;;5098382;27;20086;-67
2023/12/07 07:18:01;;;;;;;30.60;22.02;;;0.20;99.90;;;;;;5102135;28;20044;-67
2023/12/07 07:20:27;;;;;;;34.20;23.42;;;0.20;99.90;;;;;;5096352;28;20114;-67
2023/12/07 07:22:53;;;;;;;30.05;22.42;;;0.20;99.90;;;;;;5097834;28;20048;-67
2023/12/07 07:25:19;;;;;;;34.63;21.30;;;0.20;99.90;;;;;;5093730;28;20636;-67
2023/12/07 07:27:48;;;;;;;32.22;21.83;;;0.20;99.90;;;;;;5095163;28;20039;-67
2023/12/07 07:30:14;;;;;;;32.60;20.88;;;0.20;99.90;;;;;;5096271;28;20036;-67
2023/12/07 07:32:40;;;;;;;30.60;20.48;;;0.20;99.90;;;;;;5094538;28;20079;-67
2023/12/07 07:35:06;;;;;;;30.45;19.73;;;0.10;99.90;;;;;;5102564;28;20523;-67
2023/12/07 07:37:33;;;;;;;29.13;20.48;;;0.10;99.90;;;;;;5103597;27;20036;-66
2023/12/07 07:39:59;;;;;;;30.83;20.80;;;0.00;99.90;;;;;;5097333;28;20385;-66
2023/12/07 07:42:25;;;;;;;27.08;19.20;;;0.10;99.90;;;;;;5101315;28;20509;-67
2023/12/07 07:44:51;;;;;;;26.60;19.33;;;0.00;99.90;;;;;;5099745;27;20069;-67
2023/12/07 07:47:16;;;;;;;26.95;19.60;;;0.00;99.90;;;;;;5098305;28;20035;-67
2023/12/07 07:49:42;;;;;;;31.10;20.13;;;0.00;99.90;;;;;;5098851;28;20077;-67
2023/12/07 07:52:08;;;;;;;29.30;20.98;;;0.00;99.90;;;;;;5102218;27;20035;-66
2023/12/07 07:54:34;;;;;;;31.48;20.67;;;0.00;99.90;;;;;;5099348;28;20046;-67
2023/12/07 07:56:59;;;;;;;30.55;19.35;;;0.10;99.90;;;;;;5100652;28;20107;-67
2023/12/07 07:59:25;;;;;;;24.42;18.40;;;0.10;99.90;;;;;;5101053;28;20032;-66
2023/12/07 08:01:51;;;;;;;25.90;18.98;;;0.10;99.90;;;;;;5099018;27;20104;-67
2023/12/07 08:04:16;;;;;;;29.48;20.58;;;0.10;99.90;;;;;;5099992;27;20044;-67
2023/12/07 08:06:42;;;;;;;25.42;19.60;;;0.10;99.90;;;;;;5085450;28;20046;-67
2023/12/07 08:09:09;;;;;;;29.70;19.50;;;0.10;99.90;;;;;;5099717;27;20112;-67
2023/12/07 08:11:35;;;;;;;27.15;19.23;;;0.10;99.90;;;;;;5096772;28;20050;-67
2023/12/07 08:14:01;;;;;;;29.30;20.73;;;0.10;99.90;;;;;;5078751;28;20489;-66
2023/12/07 08:16:27;;;;;;;27.45;19.40;;;0.10;99.90;;;;;;5100835;28;20924;-66
2023/12/07 08:18:53;;;;;;;29.70;20.65;;;0.20;99.90;;;;;;5097692;28;20043;-66
2023/12/07 08:21:21;;;;;;;26.98;19.80;;;0.20;99.90;;;;;;5096110;27;20032;-66
2023/12/07 08:23:46;;;;;;;81.15;52.33;;;0.20;99.90;;;;;;5100827;27;20043;-66
2023/12/07 08:26:14;;;;;;;116.53;69.10;;;0.20;99.90;;;;;;5098453;27;20032;-66
2023/12/07 08:28:43;;;;;;;37.15;26.98;;;0.30;99.90;;;;;;5099511;27;20035;-66
2023/12/07 08:31:09;;;;;;;31.23;23.88;;;0.30;99.90;;;;;;5102247;28;20031;-66
2023/12/07 08:33:35;;;;;;;81.07;49.40;;;0.40;99.90;;;;;;5097927;28;20034;-66
2023/12/07 08:36:03;;;;;;;76.53;48.72;;;0.40;99.90;;;;;;5096332;28;21113;-66
2023/12/07 08:38:28;;;;;;;30.27;20.30;;;0.50;99.90;;;;;;5096317;27;20044;-66
2023/12/07 08:40:54;;;;;;;140.32;87.00;;;0.50;99.90;;;;;;5095049;28;20046;-66
2023/12/07 08:43:22;;;;;;;36.80;26.45;;;0.60;99.90;;;;;;5098673;28;20060;-66
2023/12/07 08:45:49;;;;;;;47.45;29.08;;;0.60;99.90;;;;;;5094816;28;20058;-66
2023/12/07 08:48:15;;;;;;;44.90;32.20;;;0.60;99.90;;;;;;5095336;28;20040;-66
2023/12/07 08:50:41;;;;;;;36.30;25.15;;;0.70;99.90;;;;;;5095532;28;20051;-66
2023/12/07 08:53:06;;;;;;;32.28;23.10;;;0.70;99.90;;;;;;5086059;27;20040;-66
2023/12/07 08:55:32;;;;;;;111.28;66.28;;;0.70;99.90;;;;;;5097372;27;20138;-66
2023/12/07 08:58:00;;;;;;;32.15;23.02;;;0.70;99.90;;;;;;5095924;28;20501;-66
2023/12/07 09:00:26;;;;;;;92.60;55.83;;;0.80;99.90;;;;;;5084570;28;20047;-66
2023/12/07 09:02:52;;;;;;;48.67;34.30;;;0.80;99.90;;;;;;5078210;28;20926;-66
2023/12/07 09:05:18;;;;;;;26.52;21.17;;;0.80;99.90;;;;;;5077910;28;20045;-66
2023/12/07 09:07:44;;;;;;;35.13;22.23;;;0.90;99.90;;;;;;5082876;27;20086;-66
2023/12/07 09:10:10;;;;;;;62.92;43.58;;;0.90;99.90;;;;;;5094670;27;20044;-66
2023/12/07 09:12:36;;;;;;;33.50;24.42;;;1.00;99.90;;;;;;5099769;28;20044;-66
2023/12/07 09:15:07;;;;;;;35.72;25.23;;;0.90;99.90;;;;;;5079019;28;20044;-66
2023/12/07 09:17:32;;;;;;;31.05;22.58;;;0.90;99.90;;;;;;5093005;28;20040;-66
2023/12/07 09:19:58;;;;;;;32.40;24.30;;;1.00;99.90;;;;;;5094835;27;20051;-66
2023/12/07 09:22:25;;;;;;;37.25;26.63;;;1.00;99.90;;;;;;5095602;27;20047;-66
2023/12/07 09:24:50;;;;;;;35.65;25.10;;;1.10;99.90;;;;;;5099244;27;20047;-66
2023/12/07 09:27:16;;;;;;;28.08;22.23;;;1.10;99.90;;;;;;5095964;27;20418;-66
2023/12/07 09:29:42;;;;;;;27.27;21.27;;;1.10;99.90;;;;;;5095105;28;20027;-66
2023/12/07 09:32:08;;;;;;;28.75;22.70;;;1.10;99.90;;;;;;5097026;27;20040;-67
2023/12/07 09:34:34;;;;;;;32.03;23.42;;;1.20;99.90;;;;;;5095416;27;20096;-66
2023/12/07 09:37:07;;;;;;;29.60;23.52;;;1.20;99.90;;;;;;5093093;28;20051;-66
2023/12/07 09:39:32;;;;;;;32.70;24.48;;;1.20;99.90;;;;;;5099449;27;20105;-66
2023/12/07 09:41:58;;;;;;;73.78;50.38;;;1.20;99.90;;;;;;5095748;28;20035;-65
2023/12/07 09:44:24;;;;;;;34.10;24.55;;;1.30;99.90;;;;;;5096203;28;20505;-65
2023/12/07 09:46:50;;;;;;;33.25;24.70;;;1.40;99.90;;;;;;5100816;28;20043;-66
2023/12/07 09:49:17;;;;;;;33.38;24.65;;;1.40;99.90;;;;;;5098103;27;20079;-66
2023/12/07 09:51:44;;;;;;;31.85;23.70;;;1.40;99.90;;;;;;5094886;28;20039;-66
2023/12/07 09:54:10;;;;;;;38.80;23.55;;;1.40;99.90;;;;;;5098531;28;20036;-66
2023/12/07 09:56:36;;;;;;;40.88;23.20;;;1.40;99.90;;;;;;5096113;27;20048;-66
2023/12/07 09:59:02;;;;;;;61.05;23.90;;;1.40;99.90;;;;;;5094578;28;20040;-66
2023/12/07 10:01:31;;;;;;;58.92;22.35;;;1.40;99.90;;;;;;5094654;28;20051;-65
2023/12/07 10:04:20;;;;;;;45.00;19.60;;;1.30;99.90;;;;;;5095858;28;20044;-66
2023/12/07 10:06:50;;;;;;;30.55;18.75;;;1.20;99.90;;;;;;5102289;28;20680;-66
2023/12/07 10:09:16;;;;;;;57.80;19.90;;;1.20;99.90;;;;;;5097443;27;20035;-66
2023/12/07 10:11:44;;;;;;;63.47;19.50;;;1.30;99.90;;;;;;5101334;27;20042;-66
2023/12/07 10:14:09;;;;;;;77.97;20.73;;;1.20;99.90;;;;;;5093057;28;20044;-66
2023/12/07 10:16:36;;;;;;;61.53;19.25;;;1.10;99.90;;;;;;5096385;27;20045;-66
2023/12/07 10:19:28;;;;;;;80.15;20.73;;;1.20;99.90;;;;;;5093847;28;20533;-65
2023/12/07 10:21:54;;;;;;;69.47;20.42;;;1.20;99.90;;;;;;5091764;28;20111;-65
2023/12/07 10:24:22;;;;;;;82.25;21.58;;;1.20;99.90;;;;;;5095032;28;20052;-66
2023/12/07 10:26:49;;;;;;;53.83;19.52;;;1.30;99.90;;;;;;5094724;27;20024;-66
2023/12/07 10:29:17;;;;;;;52.22;18.58;;;1.30;99.90;;;;;;5093767;28;20039;-66
2023/12/07 10:31:44;;;;;;;58.30;18.83;;;1.30;99.90;;;;;;5111551;27;20046;-66
2023/12/07 10:34:09;;;;;;;42.25;17.10;;;1.20;99.90;;;;;;5092465;27;20116;-66
2023/12/07 10:36:35;;;;;;;57.30;17.98;;;1.20;99.90;;;;;;5094624;28;20309;-66
2023/12/07 10:39:02;;;;;;;48.63;19.23;;;1.20;99.90;;;;;;5096294;27;20140;-66
2023/12/07 10:41:27;;;;;;;37.33;18.00;;;1.30;99.90;;;;;;5098118;28;20040;-66
2023/12/07 10:43:54;;;;;;;32.85;18.15;;;1.30;99.90;;;;;;5080355;28;20050;-66
2023/12/07 10:46:21;;;;;;;42.28;18.42;;;1.30;99.90;;;;;;5096367;28;20055;-65
2023/12/07 10:48:59;;;;;;;35.72;17.20;;;1.30;99.90;;;;;;5094553;27;20038;-66
2023/12/07 10:51:37;;;;;;;53.38;18.38;;;1.30;99.90;;;;;;5095985;28;20036;-66
2023/12/07 10:54:04;;;;;;;31.85;16.27;;;1.30;99.90;;;;;;5097417;28;20055;-66
2023/12/07 10:56:42;;;;;;;45.80;17.60;;;1.30;99.90;;;;;;5094655;28;20040;-66
2023/12/07 10:59:13;;;;;;;25.88;16.90;;;1.30;99.90;;;;;;5097406;28;20097;-66
2023/12/07 11:01:42;;;;;;;43.10;16.02;;;1.30;99.90;;;;;;5091986;27;20043;-66
2023/12/07 11:04:12;;;;;;;28.50;16.05;;;1.30;99.90;;;;;;5092840;28;20039;-66
2023/12/07 11:06:40;;;;;;;39.97;15.88;;;1.30;99.90;;;;;;5095061;27;20040;-66
2023/12/07 11:09:15;;;;;;;30.45;15.82;;;1.40;99.90;;;;;;5094410;27;20088;-66
2023/12/07 11:11:48;;;;;;;50.38;15.23;;;1.40;99.90;;;;;;5096331;28;20419;-66
2023/12/07 11:14:16;;;;;;;57.47;16.25;;;1.30;99.90;;;;;;5085703;28;20077;-66
2023/12/07 11:16:46;;;;;;;44.55;16.95;;;1.30;99.90;;;;;;5096568;28;20366;-66
2023/12/07 11:19:33;;;;;;;67.55;15.38;;;1.30;99.90;;;;;;5095371;28;20444;-66
2023/12/07 11:22:03;;;;;;;79.68;18.63;;;1.30;99.90;;;;;;5095209;28;20474;-66
2023/12/07 11:24:30;;;;;;;44.17;16.48;;;1.30;99.90;;;;;;5096642;28;20031;-66
2023/12/07 11:26:56;;;;;;;71.43;17.45;;;1.30;99.90;;;;;;5094346;28;20047;-66
2023/12/07 11:29:25;;;;;;;69.10;16.27;;;1.30;99.90;;;;;;5096309;28;20185;-66
2023/12/07 11:31:51;;;;;;;66.00;16.92;;;1.30;99.90;;;;;;5098258;28;20043;-66
2023/12/07 11:34:39;;;;;;;50.17;17.65;;;1.20;99.90;;;;;;5082057;28;20139;-66
2023/12/07 11:37:07;;;;;;;73.25;18.25;;;1.20;99.90;;;;;;5099162;28;20036;-66
2023/12/07 11:39:43;;;;;;;48.22;18.45;;;1.20;99.90;;;;;;5095436;28;20085;-66
2023/12/07 11:42:14;;;;;;;75.15;17.35;;;1.30;99.90;;;;;;5096674;28;20122;-66
2023/12/07 11:44:42;;;;;;;59.72;18.52;;;1.20;99.90;;;;;;5091676;28;20145;-66
2023/12/07 11:47:09;;;;;;;61.60;18.73;;;1.20;99.90;;;;;;5097054;28;20044;-66
2023/12/07 11:49:35;;;;;;;36.72;18.48;;;1.20;99.90;;;;;;5094596;28;20044;-66
2023/12/07 11:52:11;;;;;;;80.93;18.60;;;1.30;99.90;;;;;;5096970;28;20443;-66
2023/12/07 11:54:37;;;;;;;65.25;19.30;;;1.50;99.90;;;;;;5097492;28;20047;-66
2023/12/07 11:57:03;;;;;;;57.83;19.10;;;1.20;99.90;;;;;;5092385;28;20039;-66
2023/12/07 11:59:29;;;;;;;51.38;18.13;;;1.20;99.90;;;;;;5097032;28;20565;-66
2023/12/07 12:01:55;;;;;;;44.40;18.20;;;1.30;99.90;;;;;;5093059;28;20047;-66
2023/12/07 12:04:23;;;;;;;50.72;19.67;;;1.30;99.90;;;;;;5093765;28;20498;-66
2023/12/07 12:06:50;;;;;;;47.72;19.33;;;1.30;99.90;;;;;;5095344;28;20024;-66
2023/12/07 12:09:17;;;;;;;48.67;19.63;;;1.30;99.90;;;;;;5096906;28;20048;-66
2023/12/07 12:11:49;;;;;;;51.47;19.20;;;1.30;99.90;;;;;;5094626;28;20058;-66
2023/12/07 12:14:19;;;;;;;33.65;19.33;;;1.30;99.90;;;;;;5098126;28;20040;-66
2023/12/07 12:16:46;;;;;;;39.20;18.48;;;1.20;99.90;;;;;;5100692;28;20544;-66
2023/12/07 12:19:15;;;;;;;34.95;19.80;;;1.30;99.90;;;;;;5097640;28;20461;-66
2023/12/07 12:21:43;;;;;;;32.03;18.77;;;1.40;99.90;;;;;;5097392;27;20039;-66
2023/12/07 12:24:09;;;;;;;56.63;20.05;;;1.40;99.90;;;;;;5100535;27;20063;-66
2023/12/07 12:26:36;;;;;;;46.55;20.92;;;1.40;99.90;;;;;;5097686;27;20149;-66
2023/12/07 12:29:02;;;;;;;45.58;21.98;;;1.40;99.90;;;;;;5098070;28;20048;-66
2023/12/07 12:31:29;;;;;;;52.70;20.23;;;1.40;99.90;;;;;;5083033;28;20036;-66
2023/12/07 12:33:55;;;;;;;43.00;20.75;;;1.40;99.90;;;;;;5094417;28;20104;-66
2023/12/07 12:36:26;;;;;;;55.65;20.38;;;1.40;99.90;;;;;;5100518;27;20036;-66